Time;durP1;ratioP1;P1;durP2;ratioP2;P2;SDS_P1;SDS_P2;PMS_P1;PMS_P2;Temp;Humidity;BMP_temperature;BMP_pressure;BME280_temperature;BME280_humidity;BME280_pressure;Samples;Min_cycle;Max_cycle;Signal;HPM_P1;HPM_P2
2023/09/29 00:00:17;;;;;;;;;8.00;7.00;;;;;-143.90;100.00;75319.00;4966077;28;102861;-76
2023/09/29 00:02:45;;;;;;;;;10.75;10.00;;;;;-143.90;100.00;75331.41;4963164;28;103455;-76
2023/09/29 00:05:17;;;;;;;;;17.25;16.50;;;;;-143.90;100.00;75343.81;4967620;28;108858;-77
2023/09/29 00:07:44;;;;;;;;;11.75;11.75;;;;;-143.90;100.00;75341.75;4970166;28;103103;-77
2023/09/29 00:10:20;;;;;;;;;13.00;12.00;;;;;-143.90;100.00;75343.81;4966620;28;103369;-77
2023/09/29 00:12:51;;;;;;;;;15.50;14.00;;;;;-143.90;100.00;75347.94;4967220;28;104976;-77
2023/09/29 00:15:19;;;;;;;;;13.00;12.00;;;;;-143.90;100.00;75352.09;4965233;28;104223;-77
2023/09/29 00:17:46;;;;;;;;;13.50;12.00;;;;;-143.90;100.00;75358.28;4967468;28;103642;-77
2023/09/29 00:20:23;;;;;;;;;8.50;7.75;;;;;-143.90;100.00;75381.03;4967372;28;102184;-77
2023/09/29 00:22:55;;;;;;;;;8.00;7.50;;;;;-143.90;100.00;75401.72;4963791;28;102506;-77
2023/09/29 00:25:22;;;;;;;;;20.50;18.50;;;;;-143.90;100.00;75416.19;4965227;28;104150;-77
2023/09/29 00:27:49;;;;;;;;;7.00;6.75;;;;;-143.90;100.00;75416.19;4967726;28;102311;-76
2023/09/29 00:30:16;;;;;;;;;15.50;12.25;;;;;-143.90;100.00;75426.50;4968234;28;103181;-73
2023/09/29 00:32:45;;;;;;;;;22.50;22.25;;;;;-143.90;100.00;75424.44;4964955;28;102447;-77
2023/09/29 00:35:19;;;;;;;;;21.25;17.75;;;;;-143.90;100.00;75432.72;4961171;28;102931;-77
2023/09/29 00:37:46;;;;;;;;;14.50;14.50;;;;;-143.90;100.00;75432.72;4967945;28;102404;-77
2023/09/29 00:40:14;;;;;;;;;15.00;14.00;;;;;-143.90;100.00;75441.00;4959256;28;103994;-77
2023/09/29 00:42:42;;;;;;;;;15.50;14.75;;;;;-143.90;100.00;75465.81;4965675;28;102538;-76
2023/09/29 00:45:10;;;;;;;;;16.00;15.50;;;;;-143.90;100.00;75478.22;4967401;28;104184;-77
2023/09/29 00:47:38;;;;;;;;;12.25;11.25;;;;;-143.90;100.00;75486.47;4962784;28;102296;-76
2023/09/29 00:50:10;;;;;;;;;16.50;14.00;;;;;-143.90;100.00;75480.28;4965286;28;103251;-76
2023/09/29 00:52:38;;;;;;;;;19.25;18.00;;;;;-143.90;100.00;75488.53;4970492;28;101908;-76
2023/09/29 00:55:14;;;;;;;;;12.25;11.50;;;;;-143.90;100.00;75486.47;4961615;28;104348;-76
2023/09/29 00:57:44;;;;;;;;;15.00;13.25;;;;;-143.90;100.00;75484.41;4961481;28;102269;-75
2023/09/29 01:00:14;;;;;;;;;13.50;12.00;;;;;-143.90;100.00;75488.53;4965419;28;102215;-76
2023/09/29 01:02:43;;;;;;;;;14.75;13.00;;;;;-143.90;100.00;75494.75;4962574;28;102217;-76
2023/09/29 01:05:12;;;;;;;;;16.75;15.50;;;;;-143.90;100.00;75505.09;4960314;28;104544;-76
2023/09/29 01:07:41;;;;;;;;;11.00;9.00;;;;;-143.90;100.00;75517.50;4956173;28;102337;-76
2023/09/29 01:10:10;;;;;;;;;15.00;14.00;;;;;-143.90;100.00;75529.91;4961051;28;102076;-76
2023/09/29 01:12:37;;;;;;;;;16.50;15.50;;;;;-143.90;100.00;75542.31;4965859;28;102201;-77
2023/09/29 01:15:05;;;;;;;;;14.75;14.75;;;;;-143.90;100.00;75544.38;4966749;28;105436;-77
2023/09/29 01:17:31;;;;;;;;;16.50;15.00;;;;;-143.90;100.00;75552.63;4962948;28;103505;-78
2023/09/29 01:19:58;;;;;;;;;14.50;13.75;;;;;-143.90;100.00;75552.63;4952843;28;102598;-76
2023/09/29 01:22:26;;;;;;;;;12.75;9.75;;;;;-143.90;100.00;75548.50;4963886;28;102118;-77
2023/09/29 01:24:52;;;;;;;;;10.25;9.25;;;;;-143.90;100.00;75548.50;4967551;28;103987;-77
2023/09/29 01:27:19;;;;;;;;;7.75;7.75;;;;;-143.90;100.00;75544.38;4967187;28;102122;-77
2023/09/29 01:29:47;;;;;;;;;10.50;8.25;;;;;-143.90;100.00;75550.56;4965644;28;105119;-77
2023/09/29 01:32:14;;;;;;;;;9.75;9.25;;;;;-143.90;100.00;75550.56;4965425;28;102482;-76
2023/09/29 01:34:40;;;;;;;;;13.75;11.00;;;;;-143.90;100.00;75562.97;4956831;28;103929;-76
2023/09/29 01:37:08;;;;;;;;;12.50;11.75;;;;;-143.90;100.00;75573.31;4963737;28;102311;-77
2023/09/29 01:39:34;;;;;;;;;11.00;10.75;;;;;-143.90;100.00;75569.19;4963461;28;102147;-77
2023/09/29 01:42:01;;;;;;;;;10.75;9.75;;;;;-143.90;100.00;75579.53;4967521;28;103447;-76
2023/09/29 01:44:28;;;;;;;;;13.75;12.50;;;;;-143.90;100.00;75573.31;4970721;28;104113;-76
2023/09/29 01:46:56;;;;;;;;;14.00;13.00;;;;;-143.90;100.00;75577.44;4967716;28;102195;-76
2023/09/29 01:49:22;;;;;;;;;21.25;16.25;;;;;-143.90;100.00;75585.72;4968497;28;103444;-77
2023/09/29 01:51:50;;;;;;;;;17.00;14.50;;;;;-143.90;100.00;75585.72;4971258;28;102221;-77
2023/09/29 01:54:17;;;;;;;;;8.75;7.25;;;;;-143.90;100.00;75581.59;4977213;28;106307;-77
2023/09/29 01:56:44;;;;;;;;;12.25;10.75;;;;;-143.90;100.00;75585.72;4967278;28;102438;-77
2023/09/29 01:59:13;;;;;;;;;8.00;7.25;;;;;-143.90;100.00;75589.84;4969604;28;102357;-77
2023/09/29 02:01:40;;;;;;;;;10.25;9.25;;;;;-143.90;100.00;75585.72;4967089;28;102560;-77
2023/09/29 02:04:06;;;;;;;;;6.75;5.25;;;;;-143.90;100.00;75589.84;4966952;28;105277;-76
2023/09/29 02:06:33;;;;;;;;;8.00;8.00;;;;;-143.90;100.00;75589.84;4967020;28;102691;-77
2023/09/29 02:09:00;;;;;;;;;3.00;2.25;;;;;-143.90;100.00;75598.13;4971394;28;102331;-77
2023/09/29 02:11:27;;;;;;;;;5.75;5.75;;;;;-143.90;100.00;75594.00;4970140;28;103804;-77
2023/09/29 02:13:54;;;;;;;;;6.75;6.25;;;;;-143.90;100.00;75594.00;4968357;28;105179;-76
2023/09/29 02:16:21;;;;;;;;;6.25;6.00;;;;;-143.90;100.00;75598.13;4966073;28;102474;-77
2023/09/29 02:18:48;;;;;;;;;10.50;9.00;;;;;-143.90;100.00;75610.53;4969423;28;102134;-76
2023/09/29 02:21:22;;;;;;;;;7.00;6.50;;;;;-143.90;100.00;75610.53;4967177;28;102421;-77
2023/09/29 02:23:48;;;;;;;;;9.50;7.00;;;;;-143.90;100.00;75625.00;4969163;28;104154;-76
2023/09/29 02:26:15;;;;;;;;;7.75;7.75;;;;;-143.90;100.00;75637.41;4966723;28;102437;-76
2023/09/29 02:28:42;;;;;;;;;10.50;9.75;;;;;-143.90;100.00;75635.34;4969143;28;102119;-77
2023/09/29 02:31:15;;;;;;;;;11.00;11.00;;;;;-143.90;100.00;75627.06;4973120;28;102603;-77
2023/09/29 02:33:41;;;;;;;;;6.50;6.00;;;;;-143.90;100.00;75631.22;4959712;28;105405;-77
2023/09/29 02:36:08;;;;;;;;;14.00;12.00;;;;;-143.90;100.00;75643.63;4963651;28;102211;-76
2023/09/29 02:38:38;;;;;;;;;6.50;5.00;;;;;-143.90;100.00;75631.22;4964088;28;101946;-77
2023/09/29 02:41:07;;;;;;;;;8.25;6.75;;;;;-143.90;100.00;75635.34;4970800;28;102234;-76
2023/09/29 02:43:34;;;;;;;;;5.75;5.25;;;;;-143.90;100.00;75637.41;4972922;28;104059;-77
2023/09/29 02:46:00;;;;;;;;;11.50;8.00;;;;;-143.90;100.00;75631.22;4963303;28;102099;-76
2023/09/29 02:48:27;;;;;;;;;8.00;6.00;;;;;-143.90;100.00;75627.06;4959778;28;102026;-77
2023/09/29 02:50:55;;;;;;;;;11.75;10.25;;;;;-143.90;100.00;75631.22;4957722;28;102480;-76
2023/09/29 02:53:21;;;;;;;;;7.25;5.50;;;;;-143.90;100.00;75639.47;4960134;28;104156;-76
2023/09/29 02:55:49;;;;;;;;;7.75;7.50;;;;;-143.90;100.00;75639.47;4963785;28;102225;-77
2023/09/29 02:58:17;;;;;;;;;6.50;6.50;;;;;-143.90;100.00;75637.41;4961747;28;103707;-77
2023/09/29 03:00:44;;;;;;;;;6.75;6.75;;;;;-143.90;100.00;75635.34;4969047;28;103399;-77
2023/09/29 03:03:10;;;;;;;;;5.00;5.00;;;;;-143.90;100.00;75629.13;4963787;28;105235;-76
2023/09/29 03:05:43;;;;;;;;;7.25;7.25;;;;;-143.90;100.00;75629.13;4963730;28;101946;-76
2023/09/29 03:08:09;;;;;;;;;6.25;6.00;;;;;-143.90;100.00;75622.94;4962534;28;103784;-75
2023/09/29 03:10:37;;;;;;;;;6.75;6.50;;;;;-143.90;100.00;75620.88;4965500;28;102036;-77
2023/09/29 03:13:03;;;;;;;;;5.00;5.00;;;;;-143.90;100.00;75627.06;4962622;28;108792;-77
2023/09/29 03:15:30;;;;;;;;;6.75;6.00;;;;;-143.90;100.00;75614.66;4963920;28;102521;-77
2023/09/29 03:17:57;;;;;;;;;4.50;4.00;;;;;-143.90;100.00;75620.88;4966469;28;103921;-77
2023/09/29 03:20:26;;;;;;;;;6.00;6.00;;;;;-143.90;100.00;75625.00;4957653;28;105781;-76
2023/09/29 03:22:56;;;;;;;;;5.50;5.50;;;;;-143.90;100.00;75627.06;4962466;28;103674;-78
2023/09/29 03:25:22;;;;;;;;;7.00;6.00;;;;;-143.90;100.00;75612.59;4960752;28;102093;-76
2023/09/29 03:27:50;;;;;;;;;4.75;3.75;;;;;-143.90;100.00;75627.06;4963950;28;102233;-76
2023/09/29 03:30:17;;;;;;;;;12.75;10.75;;;;;-143.90;100.00;75627.06;4965319;28;102375;-76
2023/09/29 03:32:44;;;;;;;;;12.00;8.75;;;;;-143.90;100.00;75635.34;4960324;28;105715;-77
2023/09/29 03:35:13;;;;;;;;;11.25;9.75;;;;;-143.90;100.00;75635.34;4962653;28;102624;-76
2023/09/29 03:37:42;;;;;;;;;11.00;10.75;;;;;-143.90;100.00;75631.22;4964563;28;102295;-76
2023/09/29 03:40:10;;;;;;;;;9.00;8.00;;;;;-143.90;100.00;75633.28;4966518;28;103024;-77
2023/09/29 03:42:41;;;;;;;;;10.50;10.50;;;;;-143.90;100.00;75645.69;4963689;28;104398;-76
2023/09/29 03:45:11;;;;;;;;;9.25;7.25;;;;;-143.90;100.00;75639.47;4963097;28;102500;-76
2023/09/29 03:47:37;;;;;;;;;8.00;8.00;;;;;-143.90;100.00;75658.09;4963568;28;102123;-76
2023/09/29 03:50:12;;;;;;;;;12.00;11.00;;;;;-143.90;100.00;75664.28;4970093;28;102394;-76
2023/09/29 03:52:42;;;;;;;;;19.75;13.75;;;;;-143.90;100.00;75664.28;4961606;28;109981;-77
2023/09/29 03:55:12;;;;;;;;;11.25;10.25;;;;;-143.90;100.00;75666.34;4963134;28;102147;-76
2023/09/29 03:57:41;;;;;;;;;15.75;13.75;;;;;-143.90;100.00;75651.88;4962488;28;102631;-76
2023/09/29 04:00:12;;;;;;;;;10.00;10.00;;;;;-143.90;100.00;75647.75;4964987;28;102297;-76
2023/09/29 04:02:40;;;;;;;;;11.50;10.50;;;;;-143.90;100.00;75647.75;4966368;28;104164;-77
2023/09/29 04:05:09;;;;;;;;;9.50;5.25;;;;;-143.90;100.00;75649.81;4962312;28;102695;-76
2023/09/29 04:07:38;;;;;;;;;11.50;11.00;;;;;-143.90;100.00;75651.88;4951237;28;102292;-76
2023/09/29 04:10:08;;;;;;;;;5.25;5.25;;;;;-143.90;100.00;75647.75;4954031;28;103237;-76
2023/09/29 04:12:37;;;;;;;;;11.50;9.75;;;;;-143.90;100.00;75653.94;4961545;28;103235;-76
2023/09/29 04:15:05;;;;;;;;;8.75;8.50;;;;;-143.90;100.00;75662.22;4957087;28;102100;-76
2023/09/29 04:17:36;;;;;;;;;10.00;8.25;;;;;-143.90;100.00;75658.09;4965499;28;102156;-77
2023/09/29 04:20:05;;;;;;;;;4.50;3.25;;;;;-143.90;100.00;75664.28;4980716;28;102096;-76
2023/09/29 04:22:32;;;;;;;;;5.00;5.00;;;;;-143.90;100.00;75670.50;4961635;28;105371;-78
2023/09/29 04:24:59;;;;;;;;;5.50;4.50;;;;;-143.90;100.00;75674.63;4967666;28;102687;-77
2023/09/29 04:27:26;;;;;;;;;5.00;5.00;;;;;-143.90;100.00;75676.69;4962928;28;102804;-77
2023/09/29 04:29:53;;;;;;;;;5.25;5.25;;;;;-143.90;100.00;75674.63;4967833;28;102076;-77
2023/09/29 04:32:20;;;;;;;;;4.00;4.00;;;;;-143.90;100.00;75672.56;4965760;28;103713;-77
2023/09/29 04:34:47;;;;;;;;;7.50;6.00;;;;;-143.90;100.00;75676.69;4970885;28;101874;-77
2023/09/29 04:37:14;;;;;;;;;4.00;4.00;;;;;-143.90;100.00;75672.56;4968788;28;103538;-77
2023/09/29 04:39:40;;;;;;;;;7.50;5.50;;;;;-143.90;100.00;75676.69;4972368;28;102329;-77
2023/09/29 04:42:07;;;;;;;;;5.25;5.25;;;;;-143.90;100.00;75676.69;4969988;28;104242;-77
2023/09/29 04:44:34;;;;;;;;;6.00;5.75;;;;;-143.90;100.00;75674.63;4965048;28;102404;-77
2023/09/29 04:47:00;;;;;;;;;5.00;4.00;;;;;-143.90;100.00;75672.56;4968316;28;101985;-76
2023/09/29 04:49:27;;;;;;;;;10.00;9.00;;;;;-143.90;100.00;75678.75;4963085;28;102368;-77
2023/09/29 04:51:54;;;;;;;;;5.00;5.00;;;;;-143.90;100.00;75684.97;4970553;28;105251;-77
2023/09/29 04:54:20;;;;;;;;;9.25;7.50;;;;;-143.90;100.00;75682.91;4964968;28;102236;-77
2023/09/29 04:56:47;;;;;;;;;5.00;5.00;;;;;-143.90;100.00;75691.16;4971758;28;102141;-77
2023/09/29 04:59:14;;;;;;;;;8.75;8.25;;;;;-143.90;100.00;75684.97;4967752;28;102134;-77
2023/09/29 05:01:40;;;;;;;;;9.50;7.00;;;;;-143.90;100.00;75695.31;4969102;28;104132;-77
2023/09/29 05:04:07;;;;;;;;;9.00;9.00;;;;;-143.90;100.00;75691.16;4967481;28;101994;-77
2023/09/29 05:06:34;;;;;;;;;5.50;5.00;;;;;-143.90;100.00;75697.38;4963224;28;103001;-77
2023/09/29 05:09:00;;;;;;;;;8.00;8.00;;;;;-143.90;100.00;75701.50;4972547;28;102282;-77
2023/09/29 05:11:28;;;;;;;;;5.75;4.75;;;;;-143.90;100.00;75705.66;4968969;28;107892;-77
2023/09/29 05:13:57;;;;;;;;;8.75;6.50;;;;;-143.90;100.00;75705.66;4967595;28;102205;-77
2023/09/29 05:16:24;;;;;;;;;6.75;6.25;;;;;-143.90;100.00;75703.56;4969442;28;101972;-77
2023/09/29 05:18:53;;;;;;;;;10.25;9.00;;;;;-143.90;100.00;75705.66;4968862;28;101921;-77
2023/09/29 05:21:20;;;;;;;;;6.00;6.00;;;;;-143.90;100.00;75705.66;4965927;28;103745;-77
2023/09/29 05:23:47;;;;;;;;;5.75;5.00;;;;;-143.90;100.00;75701.50;4965482;28;102423;-78
2023/09/29 05:26:13;;;;;;;;;5.00;4.50;;;;;-143.90;100.00;75699.44;4978890;28;101830;-77
2023/09/29 05:28:40;;;;;;;;;7.75;4.00;;;;;-143.90;100.00;75699.44;4965695;28;101801;-77
2023/09/29 05:31:07;;;;;;;;;8.00;5.25;;;;;-143.90;100.00;75689.09;4968409;28;104183;-76
2023/09/29 05:33:34;;;;;;;;;4.50;4.50;;;;;-143.90;100.00;75682.91;4969770;28;102270;-76
2023/09/29 05:36:01;;;;;;;;;6.00;5.25;;;;;-143.90;100.00;75680.84;4972225;28;102461;-77
2023/09/29 05:38:28;;;;;;;;;4.00;3.25;;;;;-143.90;100.00;75670.50;4969586;28;102371;-77
2023/09/29 05:40:55;;;;;;;;;3.75;3.50;;;;;-143.90;100.00;75660.16;4963259;28;102892;-77
2023/09/29 05:43:22;;;;;;;;;3.00;3.00;;;;;-143.90;100.00;75653.94;4968266;28;102177;-77
2023/09/29 05:45:48;;;;;;;;;5.50;4.75;;;;;-143.90;100.00;75643.63;4964483;28;102480;-77
2023/09/29 05:48:15;;;;;;;;;3.00;3.00;;;;;-143.90;100.00;75629.13;4969653;28;102298;-77
2023/09/29 05:50:42;;;;;;;;;5.50;5.50;;;;;-143.90;100.00;75620.88;4966316;28;103987;-76
2023/09/29 05:53:09;;;;;;;;;2.50;2.50;;;;;-143.90;100.00;75602.25;4966468;28;102076;-77
2023/09/29 05:55:38;;;;;;;;;2.50;2.50;;;;;-143.90;100.00;75589.84;4963250;28;102189;-77
2023/09/29 05:58:05;;;;;;;;;2.75;2.00;;;;;-143.90;100.00;75577.44;4971212;28;102360;-75
2023/09/29 06:00:33;;;;;;;;;2.75;2.75;;;;;-143.90;100.00;75565.03;4969841;28;104021;-77
2023/09/29 06:02:59;;;;;;;;;4.00;4.00;;;;;-143.90;100.00;75548.50;4966825;28;102205;-77
2023/09/29 06:05:27;;;;;;;;;4.50;4.00;;;;;-143.90;100.00;75540.22;4970465;28;102108;-77
2023/09/29 06:07:54;;;;;;;;;11.00;10.50;;;;;-143.90;100.00;75531.97;4967922;28;102072;-77
2023/09/29 06:10:24;;;;;;;;;21.75;17.25;;;;;-143.90;100.00;75517.50;4963120;28;103693;-77
2023/09/29 06:12:51;;;;;;;;;20.00;18.00;;;;;-143.90;100.00;75484.41;4955974;28;102269;-77
2023/09/29 06:15:19;;;;;;;;;23.50;19.75;;;;;-143.90;100.00;75467.88;4966091;28;102970;-77
2023/09/29 06:17:45;;;;;;;;;22.25;20.75;;;;;-143.90;100.00;75455.47;4968828;28;101902;-77
2023/09/29 06:20:12;;;;;;;;;23.50;21.25;;;;;-143.90;100.00;75436.84;4969467;28;104086;-76
2023/09/29 06:22:39;;;;;;;;;21.00;19.50;;;;;-143.90;100.00;75424.44;4952704;28;102919;-76
2023/09/29 06:25:06;;;;;;;;;21.25;19.75;;;;;-143.90;100.00;75409.97;4961785;28;102604;-77
2023/09/29 06:27:33;;;;;;;;;23.25;20.25;;;;;-143.90;100.00;75403.78;4961791;28;102475;-77
2023/09/29 06:30:00;;;;;;;;;23.00;22.00;;;;;-143.90;100.00;75372.75;4961667;28;105100;-77
2023/09/29 06:32:26;;;;;;;;;19.25;16.00;;;;;-143.90;100.00;75354.16;4961119;28;102155;-77
2023/09/29 06:34:53;;;;;;;;;18.75;17.75;;;;;-143.90;100.00;75333.47;4965209;28;102238;-77
2023/09/29 06:37:20;;;;;;;;;20.00;16.00;;;;;-143.90;100.00;75321.06;4967301;28;102134;-78
2023/09/29 06:39:46;;;;;;;;;15.25;14.25;;;;;-143.90;100.00;75300.41;4967249;28;103853;-78
2023/09/29 06:42:13;;;;;;;;;14.50;13.00;;;;;-143.90;100.00;75267.31;4971207;28;103261;-77
2023/09/29 06:44:40;;;;;;;;;11.50;11.50;;;;;-143.90;100.00;75242.50;4973260;28;102229;-77
2023/09/29 06:47:07;;;;;;;;;12.00;9.25;;;;;-143.90;100.00;75225.97;4969050;28;102571;-77
2023/09/29 06:49:34;;;;;;;;;5.25;5.00;;;;;-143.90;100.00;75201.16;4958053;28;103461;-76
2023/09/29 06:52:00;;;;;;;;;7.50;6.75;;;;;-143.90;100.00;75180.50;4963419;28;102378;-76
2023/09/29 06:54:27;;;;;;;;;6.00;6.00;;;;;-143.90;100.00;75151.53;4987037;28;102429;-79
2023/09/29 06:56:54;;;;;;;;;6.25;5.50;;;;;-143.90;100.00;75130.88;4965226;28;102116;-78
2023/09/29 06:59:21;;;;;;;;;6.00;4.75;;;;;-143.90;100.00;75099.88;4963890;28;103949;-78
2023/09/29 07:01:48;;;;;;;;;4.75;4.75;;;;;-143.90;100.00;75089.53;4966934;28;102415;-78
2023/09/29 07:04:14;;;;;;;;;5.00;4.00;;;;;-143.90;100.00;75052.31;4963607;28;102388;-77
2023/09/29 07:06:42;;;;;;;;;5.50;4.25;;;;;-143.90;99.21;75019.22;4966864;28;102161;-78
2023/09/29 07:09:09;;;;;;;;;4.00;3.00;;;;;-143.90;97.32;75006.84;4971107;28;105222;-78
2023/09/29 07:11:39;;;;;;;;;6.00;5.00;;;;;-143.90;96.64;74977.88;4963262;28;102169;-77
2023/09/29 07:14:06;;;;;;;;;3.00;3.00;;;;;-143.90;95.09;74961.34;4965053;28;101980;-79
2023/09/29 07:16:33;;;;;;;;;3.67;3.67;;;;;-143.90;93.71;74928.28;4965986;28;102166;-77
2023/09/29 07:19:01;;;;;;;;;5.00;4.50;;;;;-143.90;92.02;74907.59;4982636;27;105014;-79
2023/09/29 07:21:28;;;;;;;;;4.00;4.00;;;;;-143.90;89.45;74884.88;4967052;28;102134;-77
2023/09/29 07:23:56;;;;;;;;;5.33;5.00;;;;;-143.90;90.80;74858.00;4961404;28;102821;-78
2023/09/29 07:26:23;;;;;;;;;4.33;4.00;;;;;-143.90;90.15;74826.97;4964803;28;102434;-80
2023/09/29 07:28:50;;;;;;;;;6.00;6.00;;;;;-143.90;88.10;74802.16;4965029;28;108221;-76
2023/09/29 07:31:17;;;;;;;;;5.33;4.67;;;;;-143.90;89.04;74783.56;4966076;28;102061;-78
2023/09/29 07:33:44;;;;;;;;;2.67;2.67;;;;;-143.90;87.24;74767.03;4968250;28;102461;-79
2023/09/29 07:36:10;;;;;;;;;3.00;3.00;;;;;-143.90;86.28;74748.44;4965927;28;102034;-77
2023/09/29 07:38:37;;;;;;;;;3.67;3.00;;;;;-143.90;85.64;74719.47;4966010;28;105448;-78
2023/09/29 07:41:05;;;;;;;;;4.00;4.00;;;;;-143.90;86.84;74702.94;4964356;28;102374;-77
2023/09/29 07:43:31;;;;;;;;;5.00;5.00;;;;;-143.90;84.05;74678.16;4966835;28;103096;-78
2023/09/29 07:45:58;;;;;;;;;6.33;6.33;;;;;-143.90;85.57;74671.94;4972849;27;102279;-78
2023/09/29 07:48:25;;;;;;;;;2.33;2.33;;;;;-143.90;84.53;74653.34;4962387;28;103845;-78
2023/09/29 07:50:52;;;;;;;;;4.00;4.00;;;;;-143.90;81.40;74655.41;4963879;28;102750;-77
2023/09/29 07:53:19;;;;;;;;;6.33;6.00;;;;;-143.90;80.52;74634.72;4962895;28;101895;-77
2023/09/29 07:55:46;;;;;;;;;6.33;6.33;;;;;-143.90;81.59;74622.34;4964385;28;103633;-77
2023/09/29 07:58:12;;;;;;;;;6.00;6.00;;;;;-143.90;80.16;74605.78;4970484;28;107806;-77
2023/09/29 08:00:39;;;;;;;;;6.67;6.33;;;;;-143.90;80.72;74591.31;4966064;28;102451;-77
2023/09/29 08:03:06;;;;;;;;;7.00;6.67;;;;;-143.90;79.03;74564.44;4968719;28;102049;-77
2023/09/29 08:05:33;;;;;;;;;5.00;5.00;;;;;-143.90;79.34;74558.25;4965737;28;102240;-77
2023/09/29 08:07:59;;;;;;;;;5.33;5.00;;;;;-143.90;78.37;74537.56;4964509;28;105408;-77
2023/09/29 08:10:26;;;;;;;;;5.00;5.00;;;;;-143.90;79.05;74531.38;4958390;28;102039;-77
2023/09/29 08:12:54;;;;;;;;;5.33;5.33;;;;;-143.90;80.61;74510.72;4958855;28;102450;-77
2023/09/29 08:15:21;;;;;;;;;5.00;5.00;;;;;-143.90;77.84;74494.16;4960017;28;102174;-77
2023/09/29 08:17:48;;;;;;;;;4.33;4.00;;;;;-143.90;76.36;74473.50;4956991;28;104171;-77
2023/09/29 08:20:17;;;;;;;;;8.00;8.00;;;;;-143.90;78.82;74469.38;4969802;28;103880;-77
2023/09/29 08:22:44;;;;;;;;;7.33;7.33;;;;;-143.90;76.90;74452.84;4965327;27;102288;-77
2023/09/29 08:25:14;;;;;;;;;6.33;5.33;;;;;-143.90;76.83;74436.28;4967644;28;102488;-77
2023/09/29 08:27:42;;;;;;;;;6.00;6.00;;;;;-143.90;75.18;74425.97;4964059;28;104690;-76
2023/09/29 08:30:10;;;;;;;;;6.67;6.33;;;;;-143.90;73.21;74413.56;4964117;27;102088;-77
2023/09/29 08:32:39;;;;;;;;;4.67;4.33;;;;;-143.90;71.72;74419.75;4963550;27;102737;-77
2023/09/29 08:35:06;;;;;;;;;7.00;6.00;;;;;-143.90;73.96;74386.69;4965211;28;102133;-76
2023/09/29 08:37:33;;;;;;;;;5.67;5.33;;;;;-143.90;73.40;74374.28;4975883;28;104592;-76
2023/09/29 08:40:00;;;;;;;;;5.33;4.00;;;;;-143.90;71.81;74357.75;4967255;28;102291;-76
2023/09/29 08:42:35;;;;;;;;;8.00;6.67;;;;;-143.90;71.93;74349.47;4961974;28;102089;-76
2023/09/29 08:45:09;;;;;;;;;2.67;2.67;;;;;-143.90;70.15;74337.06;4978644;28;102337;-76
2023/09/29 08:47:37;;;;;;;;;7.00;7.00;;;;;-143.90;71.02;74320.53;4960846;28;104095;-76
2023/09/29 08:50:06;;;;;;;;;4.67;4.67;;;;;-143.90;68.35;74316.41;4962242;28;101803;-76
2023/09/29 08:52:35;;;;;;;;;5.33;5.00;;;;;-143.90;70.25;74312.28;4965510;28;102398;-77
2023/09/29 08:55:07;;;;;;;;;6.00;6.00;;;;;-143.90;71.66;74285.41;4960889;28;102314;-77
2023/09/29 08:57:34;;;;;;;;;7.00;6.33;;;;;-143.90;67.73;74289.53;4946547;28;109823;-76
2023/09/29 09:00:01;;;;;;;;;8.33;7.33;;;;;-143.90;69.26;74279.22;4946383;28;102312;-76
2023/09/29 09:02:28;;;;;;;;;10.67;9.33;;;;;-143.90;66.44;74270.94;4957021;28;102313;-75
2023/09/29 09:04:55;;;;;;;;;10.00;10.00;;;;;-143.90;67.56;74262.66;4962740;28;102418;-75
2023/09/29 09:07:21;;;;;;;;;11.00;9.00;;;;;-143.90;63.11;74250.25;4965311;28;104135;-74
2023/09/29 09:09:52;;;;;;;;;8.33;7.33;;;;;-143.90;62.64;74229.59;4966754;28;101926;-76
2023/09/29 09:12:32;;;;;;;;;7.00;6.67;;;;;-143.90;63.80;74213.06;4961485;28;102450;-76
2023/09/29 09:15:00;;;;;;;;;7.67;7.00;;;;;-143.90;59.98;74202.72;4962927;28;104619;-75
2023/09/29 09:17:27;;;;;;;;;8.00;7.67;;;;;-143.90;62.69;74196.53;4957959;28;103488;-76
2023/09/29 09:19:54;;;;;;;;;8.00;7.00;;;;;-143.90;67.25;74182.06;4965915;28;102240;-75
2023/09/29 09:22:24;;;;;;;;;9.00;7.00;;;;;-143.90;63.46;74161.38;4978593;28;102273;-76
2023/09/29 09:25:11;;;;;;;;;9.00;8.00;;;;;-143.90;66.89;74153.13;4964930;28;102196;-75
2023/09/29 09:27:43;;;;;;;;;7.00;7.00;;;;;-143.90;64.10;74138.66;4967876;27;104061;-76
2023/09/29 09:30:23;;;;;;;;;7.33;6.67;;;;;-143.90;59.66;74134.53;4965063;28;104270;-75
2023/09/29 09:32:51;;;;;;;;;6.00;5.33;;;;;-143.90;60.06;74122.13;4959757;28;102465;-77
2023/09/29 09:35:25;;;;;;;;;6.00;6.00;;;;;-143.90;59.06;74111.78;4967247;28;102056;-76
2023/09/29 09:37:53;;;;;;;;;8.67;7.00;;;;;-143.90;58.91;74111.78;4962126;28;110291;-76
2023/09/29 09:40:24;;;;;;;;;5.33;5.33;;;;;-143.90;59.78;74099.38;4965281;28;102241;-76
2023/09/29 09:42:53;;;;;;;;;8.00;7.00;;;;;-143.90;59.18;74089.06;4963089;28;102476;-75
2023/09/29 09:45:25;;;;;;;;;4.00;4.00;;;;;-143.90;58.23;74074.59;4963723;28;102252;-76
2023/09/29 09:47:59;;;;;;;;;10.33;10.33;;;;;-143.90;57.92;74076.66;4960005;28;108213;-76
2023/09/29 09:50:30;;;;;;;;;7.67;7.67;;;;;-143.90;57.64;74076.66;4962935;28;102349;-76
2023/09/29 09:53:02;;;;;;;;;6.33;6.33;;;;;-143.90;58.37;74070.44;4964234;28;102324;-76
2023/09/29 09:55:42;;;;;;;;;6.33;6.00;;;;;-143.90;53.79;74055.97;4960398;28;102226;-77
2023/09/29 09:58:16;;;;;;;;;7.00;7.00;;;;;-143.90;58.19;74039.44;4966041;28;102582;-77
2023/09/29 10:00:50;;;;;;;;;7.33;6.67;;;;;-143.90;55.89;74031.19;4960196;28;102117;-76
2023/09/29 10:03:17;;;;;;;;;11.00;9.00;;;;;-143.90;56.34;74031.19;4963752;28;102362;-76
2023/09/29 10:05:52;;;;;;;;;10.67;10.00;;;;;-143.90;54.99;74010.50;4969141;28;102228;-76
2023/09/29 10:08:33;;;;;;;;;6.33;6.33;;;;;-143.90;55.95;74002.25;4965360;28;109514;-75
2023/09/29 10:11:14;;;;;;;;;6.00;6.00;;;;;-143.90;55.50;73991.91;4967977;28;102125;-75
2023/09/29 10:13:45;;;;;;;;;6.33;6.33;;;;;-143.90;51.65;73985.72;4964796;28;102105;-75
2023/09/29 10:16:25;;;;;;;;;8.00;7.67;;;;;-143.90;51.69;73981.56;4962385;28;102325;-75
2023/09/29 10:19:00;;;;;;;;;6.67;6.67;;;;;-143.90;55.85;73973.31;4960889;28;108728;-82
2023/09/29 10:21:33;;;;;;;;;7.33;7.33;;;;;-143.90;48.82;73975.38;4969134;28;102224;-74
2023/09/29 10:24:05;;;;;;;;;8.00;8.00;;;;;-143.90;51.83;73965.03;4966431;28;103535;-74
2023/09/29 10:26:48;;;;;;;;;9.33;9.00;;;;;-143.90;49.07;73960.91;4968749;28;102158;-75
2023/09/29 10:29:20;;;;;;;;;7.67;7.67;;;;;-143.90;48.91;73956.78;4962658;28;104428;-74
2023/09/29 10:31:48;;;;;;;;;10.33;9.33;;;;;-143.90;51.35;73950.56;4963755;28;101928;-74
2023/09/29 10:34:24;;;;;;;;;4.00;4.00;;;;;-143.90;49.52;73944.38;4969086;28;102223;-75
2023/09/29 10:36:55;;;;;;;;;8.00;7.67;;;;;-143.90;47.98;73952.63;4969336;27;102102;-76
2023/09/29 10:39:29;;;;;;;;;7.33;6.33;;;;;-143.90;47.54;73936.09;4965955;28;108702;-76
2023/09/29 10:42:12;;;;;;;;;7.00;7.00;;;;;-143.90;47.49;73923.72;4969280;28;102690;-75
2023/09/29 10:44:52;;;;;;;;;9.00;9.00;;;;;-143.90;45.94;73917.50;4969133;28;103815;-76
2023/09/29 10:47:36;;;;;;;;;10.00;9.00;;;;;-143.90;47.08;73913.38;4965004;28;102384;-75
2023/09/29 10:50:04;;;;;;;;;8.67;8.00;;;;;-143.90;48.22;73898.91;4966554;28;107424;-75
2023/09/29 10:52:31;;;;;;;;;8.00;8.00;;;;;-143.90;48.83;73886.50;4963088;28;104539;-75
2023/09/29 10:55:04;;;;;;;;;8.00;8.00;;;;;-143.90;46.37;73869.97;4960107;28;105215;-75
2023/09/29 10:57:33;;;;;;;;;10.00;9.00;;;;;-143.90;43.37;73878.25;4966820;28;103686;-76
2023/09/29 11:00:00;;;;;;;;;9.00;9.00;;;;;-143.90;45.98;73859.63;4968085;28;104186;-75
2023/09/29 11:02:30;;;;;;;;;5.00;5.00;;;;;-143.90;46.95;73855.50;4967129;28;102675;-75
2023/09/29 11:05:00;;;;;;;;;6.00;6.00;;;;;-143.90;46.14;73857.56;4986446;28;102430;-75